sensor_id;sensor_type;location;lat;lon;timestamp;temperature;humidity
67192;HTU21D;54120;53.504;49.426;2022-11-15T00:01:53;-3.53;70.45
67192;HTU21D;54120;53.504;49.426;2022-11-15T00:04:19;-3.56;70.69
67192;HTU21D;54120;53.504;49.426;2022-11-15T00:06:45;-3.61;69.49
67192;HTU21D;54120;53.504;49.426;2022-11-15T00:09:11;-3.54;69.37
67192;HTU21D;54120;53.504;49.426;2022-11-15T00:11:37;-3.56;69.20
67192;HTU21D;54120;53.504;49.426;2022-11-15T00:14:03;-3.55;68.30
67192;HTU21D;54120;53.504;49.426;2022-11-15T00:16:29;-3.55;68.07
67192;HTU21D;54120;53.504;49.426;2022-11-15T00:18:55;-3.61;67.92
67192;HTU21D;54120;53.504;49.426;2022-11-15T00:21:23;-3.62;68.10
67192;HTU21D;54120;53.504;49.426;2022-11-15T00:23:49;-3.62;68.24
67192;HTU21D;54120;53.504;49.426;2022-11-15T00:26:15;-3.64;67.84
67192;HTU21D;54120;53.504;49.426;2022-11-15T00:28:41;-3.67;67.20
67192;HTU21D;54120;53.504;49.426;2022-11-15T00:31:13;-3.66;68.05
67192;HTU21D;54120;53.504;49.426;2022-11-15T00:33:39;-3.65;67.43
67192;HTU21D;54120;53.504;49.426;2022-11-15T00:36:07;-3.69;67.30
67192;HTU21D;54120;53.504;49.426;2022-11-15T00:38:36;-3.68;67.51
67192;HTU21D;54120;53.504;49.426;2022-11-15T00:41:04;-3.68;67.04
67192;HTU21D;54120;53.504;49.426;2022-11-15T00:43:31;-3.65;67.41
67192;HTU21D;54120;53.504;49.426;2022-11-15T00:45:58;-3.61;66.61
67192;HTU21D;54120;53.504;49.426;2022-11-15T00:48:24;-3.55;66.58
67192;HTU21D;54120;53.504;49.426;2022-11-15T00:50:50;-3.54;67.17
67192;HTU21D;54120;53.504;49.426;2022-11-15T00:53:16;-3.53;67.30
67192;HTU21D;54120;53.504;49.426;2022-11-15T00:55:43;-3.53;67.33
67192;HTU21D;54120;53.504;49.426;2022-11-15T00:58:09;-3.52;67.51
67192;HTU21D;54120;53.504;49.426;2022-11-15T01:02:32;-3.60;68.33
67192;HTU21D;54120;53.504;49.426;2022-11-15T01:04:58;-3.64;68.77
67192;HTU21D;54120;53.504;49.426;2022-11-15T01:07:24;-3.62;68.18
67192;HTU21D;54120;53.504;49.426;2022-11-15T01:09:50;-3.54;67.50
67192;HTU21D;54120;53.504;49.426;2022-11-15T01:12:16;-3.48;67.26
67192;HTU21D;54120;53.504;49.426;2022-11-15T01:14:42;-3.46;67.76
67192;HTU21D;54120;53.504;49.426;2022-11-15T01:17:08;-3.46;69.68
67192;HTU21D;54120;53.504;49.426;2022-11-15T01:19:34;-3.50;70.02
67192;HTU21D;54120;53.504;49.426;2022-11-15T01:22:00;-3.51;69.54
67192;HTU21D;54120;53.504;49.426;2022-11-15T01:24:27;-3.50;70.28
67192;HTU21D;54120;53.504;49.426;2022-11-15T01:26:53;-3.51;71.15
67192;HTU21D;54120;53.504;49.426;2022-11-15T01:29:19;-3.51;71.71
67192;HTU21D;54120;53.504;49.426;2022-11-15T01:31:45;-3.52;72.29
67192;HTU21D;54120;53.504;49.426;2022-11-15T01:34:11;-3.50;73.21
67192;HTU21D;54120;53.504;49.426;2022-11-15T01:36:37;-3.51;74.36
67192;HTU21D;54120;53.504;49.426;2022-11-15T01:39:03;-3.60;75.62
67192;HTU21D;54120;53.504;49.426;2022-11-15T01:41:31;-3.56;75.68
67192;HTU21D;54120;53.504;49.426;2022-11-15T01:47:06;-3.57;73.43
67192;HTU21D;54120;53.504;49.426;2022-11-15T01:49:35;-3.56;71.94
67192;HTU21D;54120;53.504;49.426;2022-11-15T01:52:05;-3.52;70.03
67192;HTU21D;54120;53.504;49.426;2022-11-15T01:54:33;-3.50;69.57
67192;HTU21D;54120;53.504;49.426;2022-11-15T01:57:08;-3.47;69.18
67192;HTU21D;54120;53.504;49.426;2022-11-15T01:59:36;-3.43;69.20
67192;HTU21D;54120;53.504;49.426;2022-11-15T02:02:03;-3.43;69.37
67192;HTU21D;54120;53.504;49.426;2022-11-15T02:04:32;-3.45;69.79
67192;HTU21D;54120;53.504;49.426;2022-11-15T02:06:59;-3.45;70.24
67192;HTU21D;54120;53.504;49.426;2022-11-15T02:09:27;-3.47;70.10
67192;HTU21D;54120;53.504;49.426;2022-11-15T02:11:53;-3.47;69.82
67192;HTU21D;54120;53.504;49.426;2022-11-15T02:14:20;-3.47;70.12
67192;HTU21D;54120;53.504;49.426;2022-11-15T02:22:16;-3.46;68.63
67192;HTU21D;54120;53.504;49.426;2022-11-15T02:30:47;-3.49;70.28
67192;HTU21D;54120;53.504;49.426;2022-11-15T02:33:39;-3.51;69.55
67192;HTU21D;54120;53.504;49.426;2022-11-15T02:36:15;-3.51;68.88
67192;HTU21D;54120;53.504;49.426;2022-11-15T02:38:59;-3.53;68.89
67192;HTU21D;54120;53.504;49.426;2022-11-15T02:41:33;-3.53;68.93
67192;HTU21D;54120;53.504;49.426;2022-11-15T02:44:05;-3.50;68.52
67192;HTU21D;54120;53.504;49.426;2022-11-15T02:46:45;-3.52;68.46
67192;HTU21D;54120;53.504;49.426;2022-11-15T02:49:33;-3.51;68.25
67192;HTU21D;54120;53.504;49.426;2022-11-15T02:52:00;-3.51;68.18
67192;HTU21D;54120;53.504;49.426;2022-11-15T02:54:29;-3.53;68.25
67192;HTU21D;54120;53.504;49.426;2022-11-15T02:57:06;-3.58;68.87
67192;HTU21D;54120;53.504;49.426;2022-11-15T02:59:50;-3.62;69.18
67192;HTU21D;54120;53.504;49.426;2022-11-15T03:05:17;-3.56;70.57
67192;HTU21D;54120;53.504;49.426;2022-11-15T03:15:44;-3.61;73.03
67192;HTU21D;54120;53.504;49.426;2022-11-15T03:18:15;-3.57;71.44
67192;HTU21D;54120;53.504;49.426;2022-11-15T03:20:46;-3.61;71.48
67192;HTU21D;54120;53.504;49.426;2022-11-15T03:23:13;-3.67;71.45
67192;HTU21D;54120;53.504;49.426;2022-11-15T03:25:44;-3.72;71.62
67192;HTU21D;54120;53.504;49.426;2022-11-15T03:28:16;-3.71;71.09
67192;HTU21D;54120;53.504;49.426;2022-11-15T03:30:44;-3.71;71.42
67192;HTU21D;54120;53.504;49.426;2022-11-15T03:33:11;-3.70;72.27
67192;HTU21D;54120;53.504;49.426;2022-11-15T03:35:40;-3.68;74.82
67192;HTU21D;54120;53.504;49.426;2022-11-15T03:38:36;-3.86;82.24
67192;HTU21D;54120;53.504;49.426;2022-11-15T03:41:08;-4.05;81.33
67192;HTU21D;54120;53.504;49.426;2022-11-15T03:46:57;-3.94;74.25
67192;HTU21D;54120;53.504;49.426;2022-11-15T03:49:35;-3.86;73.44
67192;HTU21D;54120;53.504;49.426;2022-11-15T03:52:04;-3.79;71.99
67192;HTU21D;54120;53.504;49.426;2022-11-15T03:54:30;-3.77;72.81
67192;HTU21D;54120;53.504;49.426;2022-11-15T03:56:56;-3.78;74.16
67192;HTU21D;54120;53.504;49.426;2022-11-15T03:59:22;-3.79;75.08
67192;HTU21D;54120;53.504;49.426;2022-11-15T04:01:48;-3.80;75.56
67192;HTU21D;54120;53.504;49.426;2022-11-15T04:04:14;-3.78;76.15
67192;HTU21D;54120;53.504;49.426;2022-11-15T04:06:40;-3.76;77.01
67192;HTU21D;54120;53.504;49.426;2022-11-15T04:09:06;-3.78;76.56
67192;HTU21D;54120;53.504;49.426;2022-11-15T04:11:32;-3.74;76.29
67192;HTU21D;54120;53.504;49.426;2022-11-15T04:13:58;-3.68;75.57
67192;HTU21D;54120;53.504;49.426;2022-11-15T04:16:24;-3.60;74.64
67192;HTU21D;54120;53.504;49.426;2022-11-15T04:18:50;-3.56;73.69
67192;HTU21D;54120;53.504;49.426;2022-11-15T04:21:36;-3.54;73.44
67192;HTU21D;54120;53.504;49.426;2022-11-15T04:24:21;-3.49;72.67
67192;HTU21D;54120;53.504;49.426;2022-11-15T04:26:47;-3.52;73.35
67192;HTU21D;54120;53.504;49.426;2022-11-15T04:29:13;-3.57;73.83
67192;HTU21D;54120;53.504;49.426;2022-11-15T04:31:57;-3.50;74.16
67192;HTU21D;54120;53.504;49.426;2022-11-15T04:34:23;-3.54;74.92
67192;HTU21D;54120;53.504;49.426;2022-11-15T04:36:49;-3.62;75.50
67192;HTU21D;54120;53.504;49.426;2022-11-15T04:39:33;-3.60;76.34
67192;HTU21D;54120;53.504;49.426;2022-11-15T04:42:06;-3.43;75.29
67192;HTU21D;54120;53.504;49.426;2022-11-15T04:44:33;-3.37;74.82
67192;HTU21D;54120;53.504;49.426;2022-11-15T04:46:59;-3.41;73.90
67192;HTU21D;54120;53.504;49.426;2022-11-15T04:49:25;-3.48;73.90
67192;HTU21D;54120;53.504;49.426;2022-11-15T04:51:51;-3.46;71.55
67192;HTU21D;54120;53.504;49.426;2022-11-15T04:54:17;-3.39;70.07
67192;HTU21D;54120;53.504;49.426;2022-11-15T04:56:43;-3.32;69.19
67192;HTU21D;54120;53.504;49.426;2022-11-15T04:59:09;-3.30;68.34
67192;HTU21D;54120;53.504;49.426;2022-11-15T05:01:35;-3.30;67.84
67192;HTU21D;54120;53.504;49.426;2022-11-15T05:04:01;-3.28;67.89
67192;HTU21D;54120;53.504;49.426;2022-11-15T05:06:49;-3.26;67.86
67192;HTU21D;54120;53.504;49.426;2022-11-15T05:09:16;-3.27;68.28
67192;HTU21D;54120;53.504;49.426;2022-11-15T05:11:43;-3.17;68.08
67192;HTU21D;54120;53.504;49.426;2022-11-15T05:14:09;-3.12;67.75
67192;HTU21D;54120;53.504;49.426;2022-11-15T05:16:36;-3.11;67.57
67192;HTU21D;54120;53.504;49.426;2022-11-15T05:19:02;-3.17;67.67
67192;HTU21D;54120;53.504;49.426;2022-11-15T05:21:28;-3.18;67.04
67192;HTU21D;54120;53.504;49.426;2022-11-15T05:23:54;-3.26;68.08
67192;HTU21D;54120;53.504;49.426;2022-11-15T05:26:20;-3.20;68.32
67192;HTU21D;54120;53.504;49.426;2022-11-15T05:28:46;-3.18;67.34
67192;HTU21D;54120;53.504;49.426;2022-11-15T05:31:16;-3.21;67.43
67192;HTU21D;54120;53.504;49.426;2022-11-15T05:33:43;-3.08;67.96
67192;HTU21D;54120;53.504;49.426;2022-11-15T05:38:51;-2.92;66.66
67192;HTU21D;54120;53.504;49.426;2022-11-15T05:41:19;-2.76;65.59
67192;HTU21D;54120;53.504;49.426;2022-11-15T05:43:47;-2.56;65.14
67192;HTU21D;54120;53.504;49.426;2022-11-15T05:46:14;-2.38;64.39
67192;HTU21D;54120;53.504;49.426;2022-11-15T05:48:44;-1.29;61.86
67192;HTU21D;54120;53.504;49.426;2022-11-15T05:51:12;0.50;54.36
67192;HTU21D;54120;53.504;49.426;2022-11-15T05:53:39;-0.14;55.09
67192;HTU21D;54120;53.504;49.426;2022-11-15T05:56:05;-1.74;60.83
67192;HTU21D;54120;53.504;49.426;2022-11-15T05:58:32;-2.43;64.53
67192;HTU21D;54120;53.504;49.426;2022-11-15T06:00:59;-2.63;67.43
67192;HTU21D;54120;53.504;49.426;2022-11-15T06:03:26;-2.82;69.25
67192;HTU21D;54120;53.504;49.426;2022-11-15T06:05:52;-2.88;69.60
67192;HTU21D;54120;53.504;49.426;2022-11-15T06:08:18;-2.95;70.97
67192;HTU21D;54120;53.504;49.426;2022-11-15T06:10:44;-3.01;70.98
67192;HTU21D;54120;53.504;49.426;2022-11-15T06:13:09;-2.86;70.45
67192;HTU21D;54120;53.504;49.426;2022-11-15T06:15:35;-2.81;67.97
67192;HTU21D;54120;53.504;49.426;2022-11-15T06:18:02;-2.65;67.40
67192;HTU21D;54120;53.504;49.426;2022-11-15T06:20:29;-2.59;66.31
67192;HTU21D;54120;53.504;49.426;2022-11-15T06:23:03;-2.47;66.49
67192;HTU21D;54120;53.504;49.426;2022-11-15T06:25:30;-2.32;65.19
67192;HTU21D;54120;53.504;49.426;2022-11-15T06:27:58;-2.23;65.01
67192;HTU21D;54120;53.504;49.426;2022-11-15T06:30:25;-2.15;63.68
67192;HTU21D;54120;53.504;49.426;2022-11-15T06:32:57;-2.00;61.34
67192;HTU21D;54120;53.504;49.426;2022-11-15T06:35:23;-2.07;60.15
67192;HTU21D;54120;53.504;49.426;2022-11-15T06:40:01;-1.95;60.02
67192;HTU21D;54120;53.504;49.426;2022-11-15T06:42:27;-1.94;58.26
67192;HTU21D;54120;53.504;49.426;2022-11-15T06:44:53;-2.13;58.99
67192;HTU21D;54120;53.504;49.426;2022-11-15T06:47:19;-2.07;58.82
67192;HTU21D;54120;53.504;49.426;2022-11-15T06:49:45;-1.99;58.30
67192;HTU21D;54120;53.504;49.426;2022-11-15T06:52:11;-1.95;58.85
67192;HTU21D;54120;53.504;49.426;2022-11-15T06:54:37;-1.91;58.66
67192;HTU21D;54120;53.504;49.426;2022-11-15T06:57:04;-2.05;56.61
67192;HTU21D;54120;53.504;49.426;2022-11-15T06:59:30;-2.18;56.43
67192;HTU21D;54120;53.504;49.426;2022-11-15T07:01:56;-2.08;55.72
67192;HTU21D;54120;53.504;49.426;2022-11-15T07:04:22;-2.15;54.98
67192;HTU21D;54120;53.504;49.426;2022-11-15T07:06:48;-2.30;54.86
67192;HTU21D;54120;53.504;49.426;2022-11-15T07:09:14;-2.29;54.68
67192;HTU21D;54120;53.504;49.426;2022-11-15T07:11:40;-2.18;53.26
67192;HTU21D;54120;53.504;49.426;2022-11-15T07:14:06;-2.09;53.87
67192;HTU21D;54120;53.504;49.426;2022-11-15T07:16:32;-1.91;52.63
67192;HTU21D;54120;53.504;49.426;2022-11-15T07:18:58;-1.83;52.82
67192;HTU21D;54120;53.504;49.426;2022-11-15T07:21:24;-1.82;52.02
67192;HTU21D;54120;53.504;49.426;2022-11-15T07:23:51;-1.87;51.74
67192;HTU21D;54120;53.504;49.426;2022-11-15T07:26:17;-1.98;52.33
67192;HTU21D;54120;53.504;49.426;2022-11-15T07:28:43;-1.94;52.74
67192;HTU21D;54120;53.504;49.426;2022-11-15T07:31:11;-1.93;53.69
67192;HTU21D;54120;53.504;49.426;2022-11-15T07:33:37;-1.94;54.15
67192;HTU21D;54120;53.504;49.426;2022-11-15T07:36:05;-2.01;54.29
67192;HTU21D;54120;53.504;49.426;2022-11-15T07:38:32;-2.06;54.65
67192;HTU21D;54120;53.504;49.426;2022-11-15T07:41:00;-2.13;54.89
67192;HTU21D;54120;53.504;49.426;2022-11-15T07:43:27;-2.15;54.89
67192;HTU21D;54120;53.504;49.426;2022-11-15T07:45:53;-2.09;55.65
67192;HTU21D;54120;53.504;49.426;2022-11-15T07:48:19;-2.26;56.35
67192;HTU21D;54120;53.504;49.426;2022-11-15T07:50:45;-2.35;56.90
67192;HTU21D;54120;53.504;49.426;2022-11-15T07:53:11;-2.37;57.24
67192;HTU21D;54120;53.504;49.426;2022-11-15T07:55:40;-2.36;56.81
67192;HTU21D;54120;53.504;49.426;2022-11-15T07:58:08;-2.35;54.99
67192;HTU21D;54120;53.504;49.426;2022-11-15T08:00:35;-2.30;55.43
67192;HTU21D;54120;53.504;49.426;2022-11-15T08:03:13;-2.10;54.26
67192;HTU21D;54120;53.504;49.426;2022-11-15T08:05:41;-2.07;52.91
67192;HTU21D;54120;53.504;49.426;2022-11-15T08:08:09;-1.99;54.13
67192;HTU21D;54120;53.504;49.426;2022-11-15T08:10:36;-1.88;54.55
67192;HTU21D;54120;53.504;49.426;2022-11-15T08:13:07;-1.86;54.96
67192;HTU21D;54120;53.504;49.426;2022-11-15T08:15:34;-1.86;53.91
67192;HTU21D;54120;53.504;49.426;2022-11-15T08:18:05;-2.00;54.52
67192;HTU21D;54120;53.504;49.426;2022-11-15T08:20:32;-2.06;55.00
67192;HTU21D;54120;53.504;49.426;2022-11-15T08:23:01;-2.07;55.19
67192;HTU21D;54120;53.504;49.426;2022-11-15T08:25:29;-2.08;55.42
67192;HTU21D;54120;53.504;49.426;2022-11-15T08:27:58;-2.16;57.23
67192;HTU21D;54120;53.504;49.426;2022-11-15T08:30:25;-2.23;58.16
67192;HTU21D;54120;53.504;49.426;2022-11-15T08:32:52;-2.34;58.47
67192;HTU21D;54120;53.504;49.426;2022-11-15T08:35:19;-2.38;58.98
67192;HTU21D;54120;53.504;49.426;2022-11-15T08:37:45;-2.32;59.35
67192;HTU21D;54120;53.504;49.426;2022-11-15T08:40:12;-2.29;59.35
67192;HTU21D;54120;53.504;49.426;2022-11-15T08:42:39;-2.20;58.65
67192;HTU21D;54120;53.504;49.426;2022-11-15T08:45:07;-2.19;57.83
67192;HTU21D;54120;53.504;49.426;2022-11-15T08:47:34;-2.16;56.93
67192;HTU21D;54120;53.504;49.426;2022-11-15T08:50:00;-2.16;57.80
67192;HTU21D;54120;53.504;49.426;2022-11-15T08:52:26;-2.24;57.64
67192;HTU21D;54120;53.504;49.426;2022-11-15T08:54:52;-2.19;56.81
67192;HTU21D;54120;53.504;49.426;2022-11-15T08:57:18;-2.14;56.53
67192;HTU21D;54120;53.504;49.426;2022-11-15T08:59:44;-2.09;56.51
67192;HTU21D;54120;53.504;49.426;2022-11-15T09:02:12;-2.13;57.00
67192;HTU21D;54120;53.504;49.426;2022-11-15T09:04:43;-2.18;58.83
67192;HTU21D;54120;53.504;49.426;2022-11-15T09:07:10;-2.23;59.73
67192;HTU21D;54120;53.504;49.426;2022-11-15T09:09:37;-2.32;60.03
67192;HTU21D;54120;53.504;49.426;2022-11-15T09:12:04;-2.20;60.28
67192;HTU21D;54120;53.504;49.426;2022-11-15T09:14:30;-2.16;58.36
67192;HTU21D;54120;53.504;49.426;2022-11-15T09:16:57;-2.16;59.26
67192;HTU21D;54120;53.504;49.426;2022-11-15T09:19:23;-2.33;61.37
67192;HTU21D;54120;53.504;49.426;2022-11-15T09:21:50;-2.36;61.47
67192;HTU21D;54120;53.504;49.426;2022-11-15T09:24:16;-2.27;62.02
67192;HTU21D;54120;53.504;49.426;2022-11-15T09:26:43;-2.20;61.63
67192;HTU21D;54120;53.504;49.426;2022-11-15T09:29:09;-2.16;61.76
67192;HTU21D;54120;53.504;49.426;2022-11-15T09:31:35;-2.10;61.93
67192;HTU21D;54120;53.504;49.426;2022-11-15T09:34:01;-2.08;61.14
67192;HTU21D;54120;53.504;49.426;2022-11-15T09:36:27;-2.17;62.28
67192;HTU21D;54120;53.504;49.426;2022-11-15T09:38:53;-2.08;61.43
67192;HTU21D;54120;53.504;49.426;2022-11-15T09:41:38;-1.97;61.62
67192;HTU21D;54120;53.504;49.426;2022-11-15T09:44:23;-1.95;61.13
67192;HTU21D;54120;53.504;49.426;2022-11-15T09:49:33;-2.04;59.32
67192;HTU21D;54120;53.504;49.426;2022-11-15T09:52:42;-2.06;59.86
67192;HTU21D;54120;53.504;49.426;2022-11-15T09:55:14;-1.99;59.51
67192;HTU21D;54120;53.504;49.426;2022-11-15T09:58:24;-1.97;59.66
67192;HTU21D;54120;53.504;49.426;2022-11-15T10:00:52;-1.87;59.20
67192;HTU21D;54120;53.504;49.426;2022-11-15T10:03:36;-1.92;58.51
67192;HTU21D;54120;53.504;49.426;2022-11-15T10:06:04;-1.95;58.64
67192;HTU21D;54120;53.504;49.426;2022-11-15T10:11:23;-2.00;59.35
67192;HTU21D;54120;53.504;49.426;2022-11-15T10:15:19;-1.93;59.57
67192;HTU21D;54120;53.504;49.426;2022-11-15T10:24:28;-2.01;59.18
67192;HTU21D;54120;53.504;49.426;2022-11-15T10:26:55;-2.06;59.36
67192;HTU21D;54120;53.504;49.426;2022-11-15T10:29:23;-2.08;59.80
67192;HTU21D;54120;53.504;49.426;2022-11-15T10:31:49;-2.08;60.57
67192;HTU21D;54120;53.504;49.426;2022-11-15T10:34:20;-2.10;60.43
67192;HTU21D;54120;53.504;49.426;2022-11-15T10:36:54;-2.04;61.04
67192;HTU21D;54120;53.504;49.426;2022-11-15T10:39:20;-1.99;60.94
67192;HTU21D;54120;53.504;49.426;2022-11-15T10:41:46;-1.89;61.44
67192;HTU21D;54120;53.504;49.426;2022-11-15T10:44:31;-1.84;61.79
67192;HTU21D;54120;53.504;49.426;2022-11-15T10:49:28;-1.94;62.11
67192;HTU21D;54120;53.504;49.426;2022-11-15T10:51:57;-1.95;61.16
67192;HTU21D;54120;53.504;49.426;2022-11-15T10:56:59;-2.09;62.01
67192;HTU21D;54120;53.504;49.426;2022-11-15T10:59:32;-2.07;61.13
67192;HTU21D;54120;53.504;49.426;2022-11-15T11:01:59;-2.12;61.48
67192;HTU21D;54120;53.504;49.426;2022-11-15T11:04:26;-2.04;61.81
67192;HTU21D;54120;53.504;49.426;2022-11-15T11:06:56;-2.10;62.18
67192;HTU21D;54120;53.504;49.426;2022-11-15T11:11:54;-2.07;62.49
67192;HTU21D;54120;53.504;49.426;2022-11-15T11:14:21;-2.17;62.24
67192;HTU21D;54120;53.504;49.426;2022-11-15T11:22:22;-2.29;62.06
67192;HTU21D;54120;53.504;49.426;2022-11-15T11:27:41;-2.12;61.60
67192;HTU21D;54120;53.504;49.426;2022-11-15T11:35:11;-2.09;61.45
67192;HTU21D;54120;53.504;49.426;2022-11-15T11:46:32;-2.42;61.70
67192;HTU21D;54120;53.504;49.426;2022-11-15T11:49:10;-2.39;61.06
67192;HTU21D;54120;53.504;49.426;2022-11-15T11:51:41;-2.41;60.91
67192;HTU21D;54120;53.504;49.426;2022-11-15T11:54:23;-2.42;61.21
67192;HTU21D;54120;53.504;49.426;2022-11-15T11:56:53;-2.41;61.63
67192;HTU21D;54120;53.504;49.426;2022-11-15T11:59:48;-2.38;61.80
67192;HTU21D;54120;53.504;49.426;2022-11-15T12:02:27;-2.36;61.89
67192;HTU21D;54120;53.504;49.426;2022-11-15T12:05:03;-2.41;61.86
67192;HTU21D;54120;53.504;49.426;2022-11-15T12:07:32;-2.48;62.15
67192;HTU21D;54120;53.504;49.426;2022-11-15T12:12:42;-2.42;62.33
67192;HTU21D;54120;53.504;49.426;2022-11-15T12:15:12;-2.39;61.22
67192;HTU21D;54120;53.504;49.426;2022-11-15T12:17:40;-2.46;61.67
67192;HTU21D;54120;53.504;49.426;2022-11-15T12:20:19;-2.50;61.39
67192;HTU21D;54120;53.504;49.426;2022-11-15T12:22:53;-2.53;61.32
67192;HTU21D;54120;53.504;49.426;2022-11-15T12:25:25;-2.57;61.01
67192;HTU21D;54120;53.504;49.426;2022-11-15T12:28:04;-2.59;61.19
67192;HTU21D;54120;53.504;49.426;2022-11-15T12:33:38;-2.52;61.89
67192;HTU21D;54120;53.504;49.426;2022-11-15T12:36:10;-2.54;61.72
67192;HTU21D;54120;53.504;49.426;2022-11-15T12:41:18;-2.53;62.22
67192;HTU21D;54120;53.504;49.426;2022-11-15T12:43:47;-2.53;62.30
67192;HTU21D;54120;53.504;49.426;2022-11-15T12:46:19;-2.59;62.25
67192;HTU21D;54120;53.504;49.426;2022-11-15T12:48:49;-2.59;62.17
67192;HTU21D;54120;53.504;49.426;2022-11-15T12:51:17;-2.57;62.30
67192;HTU21D;54120;53.504;49.426;2022-11-15T12:53:44;-2.53;62.98
67192;HTU21D;54120;53.504;49.426;2022-11-15T13:11:55;-2.64;64.03
67192;HTU21D;54120;53.504;49.426;2022-11-15T13:19:53;-2.63;64.96
67192;HTU21D;54120;53.504;49.426;2022-11-15T13:22:19;-2.60;65.59
67192;HTU21D;54120;53.504;49.426;2022-11-15T13:25:04;-2.57;66.37
67192;HTU21D;54120;53.504;49.426;2022-11-15T13:27:41;-2.53;66.23
67192;HTU21D;54120;53.504;49.426;2022-11-15T13:30:18;-2.58;66.40
67192;HTU21D;54120;53.504;49.426;2022-11-15T13:32:44;-2.60;66.78
67192;HTU21D;54120;53.504;49.426;2022-11-15T13:35:21;-2.57;67.32
67192;HTU21D;54120;53.504;49.426;2022-11-15T13:37:49;-2.54;67.14
67192;HTU21D;54120;53.504;49.426;2022-11-15T13:42:47;-2.54;67.25
67192;HTU21D;54120;53.504;49.426;2022-11-15T13:45:16;-2.50;67.45
67192;HTU21D;54120;53.504;49.426;2022-11-15T13:47:42;-2.47;67.16
67192;HTU21D;54120;53.504;49.426;2022-11-15T13:50:12;-2.45;67.18
67192;HTU21D;54120;53.504;49.426;2022-11-15T13:52:40;-2.46;67.21
67192;HTU21D;54120;53.504;49.426;2022-11-15T13:57:45;-2.44;67.96
67192;HTU21D;54120;53.504;49.426;2022-11-15T14:00:40;-2.39;68.78
67192;HTU21D;54120;53.504;49.426;2022-11-15T14:03:21;-2.37;71.28
67192;HTU21D;54120;53.504;49.426;2022-11-15T14:06:04;-2.46;75.61
67192;HTU21D;54120;53.504;49.426;2022-11-15T14:08:32;-2.47;77.62
67192;HTU21D;54120;53.504;49.426;2022-11-15T14:11:19;-2.56;78.96
67192;HTU21D;54120;53.504;49.426;2022-11-15T14:16:35;-2.61;80.81
67192;HTU21D;54120;53.504;49.426;2022-11-15T14:19:03;-2.59;81.08
67192;HTU21D;54120;53.504;49.426;2022-11-15T14:21:30;-2.60;81.08
67192;HTU21D;54120;53.504;49.426;2022-11-15T14:24:20;-2.59;80.94
67192;HTU21D;54120;53.504;49.426;2022-11-15T14:26:46;-2.61;80.43
67192;HTU21D;54120;53.504;49.426;2022-11-15T14:29:26;-2.62;79.97
67192;HTU21D;54120;53.504;49.426;2022-11-15T14:31:53;-2.60;79.84
67192;HTU21D;54120;53.504;49.426;2022-11-15T14:34:20;-2.60;80.18
67192;HTU21D;54120;53.504;49.426;2022-11-15T14:36:48;-2.60;80.01
67192;HTU21D;54120;53.504;49.426;2022-11-15T14:39:14;-2.61;80.40
67192;HTU21D;54120;53.504;49.426;2022-11-15T14:41:39;-2.60;79.98
67192;HTU21D;54120;53.504;49.426;2022-11-15T14:44:06;-2.58;79.84
67192;HTU21D;54120;53.504;49.426;2022-11-15T14:46:32;-2.59;79.03
67192;HTU21D;54120;53.504;49.426;2022-11-15T14:48:58;-2.58;79.21
67192;HTU21D;54120;53.504;49.426;2022-11-15T14:51:24;-2.56;79.05
67192;HTU21D;54120;53.504;49.426;2022-11-15T14:53:51;-2.58;79.10
67192;HTU21D;54120;53.504;49.426;2022-11-15T14:56:17;-2.53;78.73
67192;HTU21D;54120;53.504;49.426;2022-11-15T14:58:44;-2.53;78.56
67192;HTU21D;54120;53.504;49.426;2022-11-15T15:01:19;-2.51;78.31
67192;HTU21D;54120;53.504;49.426;2022-11-15T15:03:45;-2.46;78.33
67192;HTU21D;54120;53.504;49.426;2022-11-15T15:06:11;-2.48;77.76
67192;HTU21D;54120;53.504;49.426;2022-11-15T15:08:40;-2.48;77.90
67192;HTU21D;54120;53.504;49.426;2022-11-15T15:11:16;-2.46;78.36
67192;HTU21D;54120;53.504;49.426;2022-11-15T15:13:43;-2.43;77.97
67192;HTU21D;54120;53.504;49.426;2022-11-15T15:16:09;-2.44;77.60
67192;HTU21D;54120;53.504;49.426;2022-11-15T15:18:35;-2.43;77.01
67192;HTU21D;54120;53.504;49.426;2022-11-15T15:21:01;-2.41;77.21
67192;HTU21D;54120;53.504;49.426;2022-11-15T15:23:33;-2.46;75.79
67192;HTU21D;54120;53.504;49.426;2022-11-15T15:26:01;-2.41;75.54
67192;HTU21D;54120;53.504;49.426;2022-11-15T15:28:27;-2.45;75.41
67192;HTU21D;54120;53.504;49.426;2022-11-15T15:30:53;-2.45;74.94
67192;HTU21D;54120;53.504;49.426;2022-11-15T15:33:19;-2.43;74.89
67192;HTU21D;54120;53.504;49.426;2022-11-15T15:35:45;-2.43;72.92
67192;HTU21D;54120;53.504;49.426;2022-11-15T15:38:11;-2.45;71.80
67192;HTU21D;54120;53.504;49.426;2022-11-15T15:40:38;-2.50;72.44
67192;HTU21D;54120;53.504;49.426;2022-11-15T15:43:04;-2.47;71.51
67192;HTU21D;54120;53.504;49.426;2022-11-15T15:45:30;-2.47;71.10
67192;HTU21D;54120;53.504;49.426;2022-11-15T15:47:57;-2.46;70.58
67192;HTU21D;54120;53.504;49.426;2022-11-15T15:50:29;-2.45;68.99
67192;HTU21D;54120;53.504;49.426;2022-11-15T15:52:58;-2.45;67.86
67192;HTU21D;54120;53.504;49.426;2022-11-15T15:55:25;-2.43;67.39
67192;HTU21D;54120;53.504;49.426;2022-11-15T15:57:51;-2.43;66.56
67192;HTU21D;54120;53.504;49.426;2022-11-15T16:00:18;-2.38;64.99
67192;HTU21D;54120;53.504;49.426;2022-11-15T16:02:45;-2.43;64.56
67192;HTU21D;54120;53.504;49.426;2022-11-15T16:05:12;-2.44;64.83
67192;HTU21D;54120;53.504;49.426;2022-11-15T16:07:39;-2.47;63.89
67192;HTU21D;54120;53.504;49.426;2022-11-15T16:10:29;-2.47;62.87
67192;HTU21D;54120;53.504;49.426;2022-11-15T16:12:57;-2.47;63.18
67192;HTU21D;54120;53.504;49.426;2022-11-15T16:15:26;-2.51;63.09
67192;HTU21D;54120;53.504;49.426;2022-11-15T16:17:54;-2.47;62.70
67192;HTU21D;54120;53.504;49.426;2022-11-15T16:20:37;-2.48;62.79
67192;HTU21D;54120;53.504;49.426;2022-11-15T16:23:06;-2.46;62.51
67192;HTU21D;54120;53.504;49.426;2022-11-15T16:28:04;-2.56;63.29
67192;HTU21D;54120;53.504;49.426;2022-11-15T16:30:30;-2.54;63.83
67192;HTU21D;54120;53.504;49.426;2022-11-15T16:32:56;-2.53;63.82
67192;HTU21D;54120;53.504;49.426;2022-11-15T16:35:22;-2.50;63.51
67192;HTU21D;54120;53.504;49.426;2022-11-15T16:37:48;-2.53;63.78
67192;HTU21D;54120;53.504;49.426;2022-11-15T16:40:27;-2.57;64.24
67192;HTU21D;54120;53.504;49.426;2022-11-15T16:42:56;-2.54;64.57
67192;HTU21D;54120;53.504;49.426;2022-11-15T16:45:23;-2.53;64.62
67192;HTU21D;54120;53.504;49.426;2022-11-15T16:47:49;-2.54;64.87
67192;HTU21D;54120;53.504;49.426;2022-11-15T16:50:20;-2.58;64.76
67192;HTU21D;54120;53.504;49.426;2022-11-15T16:52:50;-2.62;65.17
67192;HTU21D;54120;53.504;49.426;2022-11-15T16:55:16;-2.60;65.32
67192;HTU21D;54120;53.504;49.426;2022-11-15T16:59:54;-2.65;66.35
67192;HTU21D;54120;53.504;49.426;2022-11-15T17:02:20;-2.63;66.36
67192;HTU21D;54120;53.504;49.426;2022-11-15T17:04:46;-2.62;66.76
67192;HTU21D;54120;53.504;49.426;2022-11-15T17:07:12;-2.63;67.39
67192;HTU21D;54120;53.504;49.426;2022-11-15T17:09:38;-2.64;67.84
67192;HTU21D;54120;53.504;49.426;2022-11-15T17:12:05;-2.64;67.48
67192;HTU21D;54120;53.504;49.426;2022-11-15T17:14:31;-2.67;67.31
67192;HTU21D;54120;53.504;49.426;2022-11-15T17:16:57;-2.71;67.99